sensor_id;sensor_type;location;lat;lon;timestamp;temperature;humidity
21331;DHT22;10824;51.632;4.950;2022-09-13T00:02:18;19.40;88.10
21331;DHT22;10824;51.632;4.950;2022-09-13T00:04:45;19.40;87.60
21331;DHT22;10824;51.632;4.950;2022-09-13T00:07:12;19.40;88.00
21331;DHT22;10824;51.632;4.950;2022-09-13T00:09:39;19.40;87.30
21331;DHT22;10824;51.632;4.950;2022-09-13T00:12:06;19.40;87.40
21331;DHT22;10824;51.632;4.950;2022-09-13T00:14:33;19.30;87.10
21331;DHT22;10824;51.632;4.950;2022-09-13T00:17:00;19.30;87.70
21331;DHT22;10824;51.632;4.950;2022-09-13T00:19:27;19.30;87.60
21331;DHT22;10824;51.632;4.950;2022-09-13T00:21:54;19.20;87.70
21331;DHT22;10824;51.632;4.950;2022-09-13T00:24:21;19.20;87.80
21331;DHT22;10824;51.632;4.950;2022-09-13T00:26:48;19.20;88.00
21331;DHT22;10824;51.632;4.950;2022-09-13T00:29:15;19.20;87.90
21331;DHT22;10824;51.632;4.950;2022-09-13T00:31:42;19.20;88.10
21331;DHT22;10824;51.632;4.950;2022-09-13T00:34:09;19.20;87.90
21331;DHT22;10824;51.632;4.950;2022-09-13T00:36:37;19.20;88.50
21331;DHT22;10824;51.632;4.950;2022-09-13T00:39:04;19.20;88.20
21331;DHT22;10824;51.632;4.950;2022-09-13T00:41:31;19.20;88.30
21331;DHT22;10824;51.632;4.950;2022-09-13T00:44:01;19.20;88.10
21331;DHT22;10824;51.632;4.950;2022-09-13T00:46:45;19.20;87.70
21331;DHT22;10824;51.632;4.950;2022-09-13T00:49:35;19.20;88.40
21331;DHT22;10824;51.632;4.950;2022-09-13T00:52:11;19.10;88.50
21331;DHT22;10824;51.632;4.950;2022-09-13T00:54:43;19.10;89.10
21331;DHT22;10824;51.632;4.950;2022-09-13T00:57:12;19.10;89.20
21331;DHT22;10824;51.632;4.950;2022-09-13T00:59:44;19.10;88.90
21331;DHT22;10824;51.632;4.950;2022-09-13T01:02:11;19.10;89.10
21331;DHT22;10824;51.632;4.950;2022-09-13T01:04:39;19.10;88.80
21331;DHT22;10824;51.632;4.950;2022-09-13T01:07:09;19.10;88.80
21331;DHT22;10824;51.632;4.950;2022-09-13T01:09:40;19.10;89.10
21331;DHT22;10824;51.632;4.950;2022-09-13T01:12:25;19.10;89.50
21331;DHT22;10824;51.632;4.950;2022-09-13T01:14:58;19.10;89.40
21331;DHT22;10824;51.632;4.950;2022-09-13T01:17:27;19.10;89.40
21331;DHT22;10824;51.632;4.950;2022-09-13T01:19:56;19.10;89.10
21331;DHT22;10824;51.632;4.950;2022-09-13T01:27:43;19.10;88.70
21331;DHT22;10824;51.632;4.950;2022-09-13T01:36:10;19.10;88.90
21331;DHT22;10824;51.632;4.950;2022-09-13T01:41:40;19.10;89.20
21331;DHT22;10824;51.632;4.950;2022-09-13T01:47:22;19.00;90.40
21331;DHT22;10824;51.632;4.950;2022-09-13T01:59:53;18.90;92.40
21331;DHT22;10824;51.632;4.950;2022-09-13T02:02:02;19.00;92.60
21331;DHT22;10824;51.632;4.950;2022-09-13T02:04:37;19.00;93.30
21331;DHT22;10824;51.632;4.950;2022-09-13T02:07:23;18.90;94.10
21331;DHT22;10824;51.632;4.950;2022-09-13T02:09:58;18.80;94.50
21331;DHT22;10824;51.632;4.950;2022-09-13T02:12:30;18.80;94.40
21331;DHT22;10824;51.632;4.950;2022-09-13T02:20:32;18.80;94.30
21331;DHT22;10824;51.632;4.950;2022-09-13T02:23:06;18.80;94.60
21331;DHT22;10824;51.632;4.950;2022-09-13T02:25:36;18.80;95.10
21331;DHT22;10824;51.632;4.950;2022-09-13T02:28:08;18.90;95.10
21331;DHT22;10824;51.632;4.950;2022-09-13T02:30:39;18.90;95.50
21331;DHT22;10824;51.632;4.950;2022-09-13T02:33:12;18.90;95.90
21331;DHT22;10824;51.632;4.950;2022-09-13T02:35:50;18.90;95.50
21331;DHT22;10824;51.632;4.950;2022-09-13T02:38:24;18.90;95.80
21331;DHT22;10824;51.632;4.950;2022-09-13T02:40:59;18.80;95.50
21331;DHT22;10824;51.632;4.950;2022-09-13T02:43:34;18.90;94.40
21331;DHT22;10824;51.632;4.950;2022-09-13T02:49:18;18.80;94.10
21331;DHT22;10824;51.632;4.950;2022-09-13T02:55:18;18.90;93.60
21331;DHT22;10824;51.632;4.950;2022-09-13T03:00:25;18.90;93.70
21331;DHT22;10824;51.632;4.950;2022-09-13T03:02:56;18.90;93.90
21331;DHT22;10824;51.632;4.950;2022-09-13T03:05:24;18.90;94.20
21331;DHT22;10824;51.632;4.950;2022-09-13T03:07:51;18.90;93.90
21331;DHT22;10824;51.632;4.950;2022-09-13T03:10:19;18.80;95.00
21331;DHT22;10824;51.632;4.950;2022-09-13T03:18:40;18.80;93.70
21331;DHT22;10824;51.632;4.950;2022-09-13T03:21:33;18.80;94.30
21331;DHT22;10824;51.632;4.950;2022-09-13T03:30:03;18.70;97.10
21331;DHT22;10824;51.632;4.950;2022-09-13T03:35:03;18.70;96.50
21331;DHT22;10824;51.632;4.950;2022-09-13T03:40:21;18.70;97.00
21331;DHT22;10824;51.632;4.950;2022-09-13T03:43:05;18.70;97.00
21331;DHT22;10824;51.632;4.950;2022-09-13T03:45:37;18.70;97.10
21331;DHT22;10824;51.632;4.950;2022-09-13T03:48:06;18.70;97.00
21331;DHT22;10824;51.632;4.950;2022-09-13T03:50:35;18.70;97.40
21331;DHT22;10824;51.632;4.950;2022-09-13T03:53:08;18.70;97.80
21331;DHT22;10824;51.632;4.950;2022-09-13T03:55:39;18.70;97.70
21331;DHT22;10824;51.632;4.950;2022-09-13T03:58:12;18.60;97.20
21331;DHT22;10824;51.632;4.950;2022-09-13T04:00:39;18.70;96.90
21331;DHT22;10824;51.632;4.950;2022-09-13T04:03:08;18.60;96.80
21331;DHT22;10824;51.632;4.950;2022-09-13T04:05:35;18.60;96.70
21331;DHT22;10824;51.632;4.950;2022-09-13T04:08:03;18.60;96.80
21331;DHT22;10824;51.632;4.950;2022-09-13T04:10:32;18.60;96.50
21331;DHT22;10824;51.632;4.950;2022-09-13T04:13:01;18.60;96.80
21331;DHT22;10824;51.632;4.950;2022-09-13T04:15:29;18.60;96.80
21331;DHT22;10824;51.632;4.950;2022-09-13T04:17:59;18.50;97.20
21331;DHT22;10824;51.632;4.950;2022-09-13T04:20:26;18.50;97.50
21331;DHT22;10824;51.632;4.950;2022-09-13T04:22:56;18.50;97.00
21331;DHT22;10824;51.632;4.950;2022-09-13T04:25:24;18.50;96.90
21331;DHT22;10824;51.632;4.950;2022-09-13T04:27:54;18.50;97.40
21331;DHT22;10824;51.632;4.950;2022-09-13T04:30:21;18.50;97.60
21331;DHT22;10824;51.632;4.950;2022-09-13T04:32:49;18.50;97.40
21331;DHT22;10824;51.632;4.950;2022-09-13T04:35:16;18.50;97.80
21331;DHT22;10824;51.632;4.950;2022-09-13T04:37:43;18.50;98.20
21331;DHT22;10824;51.632;4.950;2022-09-13T04:40:11;18.40;98.70
21331;DHT22;10824;51.632;4.950;2022-09-13T04:42:40;18.40;99.00
21331;DHT22;10824;51.632;4.950;2022-09-13T04:45:11;18.40;98.80
21331;DHT22;10824;51.632;4.950;2022-09-13T04:47:41;18.50;98.20
21331;DHT22;10824;51.632;4.950;2022-09-13T04:50:08;18.50;98.30
21331;DHT22;10824;51.632;4.950;2022-09-13T04:52:35;18.40;98.90
21331;DHT22;10824;51.632;4.950;2022-09-13T04:55:02;18.30;99.40
21331;DHT22;10824;51.632;4.950;2022-09-13T04:57:30;18.30;99.90
21331;DHT22;10824;51.632;4.950;2022-09-13T04:59:57;18.20;99.90
21331;DHT22;10824;51.632;4.950;2022-09-13T05:02:23;18.20;99.90
21331;DHT22;10824;51.632;4.950;2022-09-13T05:04:50;18.10;99.90
21331;DHT22;10824;51.632;4.950;2022-09-13T05:07:18;18.10;99.90
21331;DHT22;10824;51.632;4.950;2022-09-13T05:09:45;18.10;99.90
21331;DHT22;10824;51.632;4.950;2022-09-13T05:12:12;18.00;99.90
21331;DHT22;10824;51.632;4.950;2022-09-13T05:14:39;18.00;99.90
21331;DHT22;10824;51.632;4.950;2022-09-13T05:17:06;18.00;99.90
21331;DHT22;10824;51.632;4.950;2022-09-13T05:19:33;18.00;99.90
21331;DHT22;10824;51.632;4.950;2022-09-13T05:22:01;18.00;99.90
21331;DHT22;10824;51.632;4.950;2022-09-13T05:24:28;18.00;99.90
21331;DHT22;10824;51.632;4.950;2022-09-13T05:26:55;18.00;99.90
21331;DHT22;10824;51.632;4.950;2022-09-13T05:29:23;18.00;99.90
21331;DHT22;10824;51.632;4.950;2022-09-13T05:31:50;18.00;99.90
21331;DHT22;10824;51.632;4.950;2022-09-13T05:34:17;18.00;99.90
21331;DHT22;10824;51.632;4.950;2022-09-13T05:36:45;18.10;99.90
21331;DHT22;10824;51.632;4.950;2022-09-13T05:39:19;18.20;99.90
21331;DHT22;10824;51.632;4.950;2022-09-13T05:42:07;18.20;99.90
21331;DHT22;10824;51.632;4.950;2022-09-13T05:44:35;18.20;99.90
21331;DHT22;10824;51.632;4.950;2022-09-13T05:47:02;18.30;99.90
21331;DHT22;10824;51.632;4.950;2022-09-13T05:49:29;18.40;99.90
21331;DHT22;10824;51.632;4.950;2022-09-13T05:51:56;18.30;99.90
21331;DHT22;10824;51.632;4.950;2022-09-13T05:54:23;18.30;99.90
21331;DHT22;10824;51.632;4.950;2022-09-13T05:56:50;18.30;99.90
21331;DHT22;10824;51.632;4.950;2022-09-13T05:59:19;18.30;99.90
21331;DHT22;10824;51.632;4.950;2022-09-13T06:01:46;18.30;99.90
21331;DHT22;10824;51.632;4.950;2022-09-13T06:04:14;18.30;99.90
21331;DHT22;10824;51.632;4.950;2022-09-13T06:06:41;18.40;99.90
21331;DHT22;10824;51.632;4.950;2022-09-13T06:09:09;18.40;99.90
21331;DHT22;10824;51.632;4.950;2022-09-13T06:11:39;18.40;99.90
21331;DHT22;10824;51.632;4.950;2022-09-13T06:14:07;18.50;99.90
21331;DHT22;10824;51.632;4.950;2022-09-13T06:16:34;18.50;99.90
21331;DHT22;10824;51.632;4.950;2022-09-13T06:19:01;18.50;99.90
21331;DHT22;10824;51.632;4.950;2022-09-13T06:21:28;18.50;99.90
21331;DHT22;10824;51.632;4.950;2022-09-13T06:23:55;18.60;99.90
21331;DHT22;10824;51.632;4.950;2022-09-13T06:26:25;18.60;99.90
21331;DHT22;10824;51.632;4.950;2022-09-13T06:28:55;18.60;99.90
21331;DHT22;10824;51.632;4.950;2022-09-13T06:31:25;18.60;99.90
21331;DHT22;10824;51.632;4.950;2022-09-13T06:33:59;18.70;99.90
21331;DHT22;10824;51.632;4.950;2022-09-13T06:36:29;18.80;99.90
21331;DHT22;10824;51.632;4.950;2022-09-13T06:38:56;18.80;99.90
21331;DHT22;10824;51.632;4.950;2022-09-13T06:41:26;18.80;99.90
21331;DHT22;10824;51.632;4.950;2022-09-13T06:43:56;18.80;99.90
21331;DHT22;10824;51.632;4.950;2022-09-13T06:46:29;18.90;99.90
21331;DHT22;10824;51.632;4.950;2022-09-13T06:49:05;18.90;99.90
21331;DHT22;10824;51.632;4.950;2022-09-13T06:51:33;19.00;99.90
21331;DHT22;10824;51.632;4.950;2022-09-13T06:54:01;19.00;99.90
21331;DHT22;10824;51.632;4.950;2022-09-13T06:56:32;19.10;99.90
21331;DHT22;10824;51.632;4.950;2022-09-13T06:59:07;19.20;99.90
21331;DHT22;10824;51.632;4.950;2022-09-13T07:01:40;19.20;99.90
21331;DHT22;10824;51.632;4.950;2022-09-13T07:04:11;19.30;99.90
21331;DHT22;10824;51.632;4.950;2022-09-13T07:06:41;19.40;99.90
21331;DHT22;10824;51.632;4.950;2022-09-13T07:09:14;19.50;99.90
21331;DHT22;10824;51.632;4.950;2022-09-13T07:11:46;19.70;99.90
21331;DHT22;10824;51.632;4.950;2022-09-13T07:14:19;19.70;99.90
21331;DHT22;10824;51.632;4.950;2022-09-13T07:16:47;19.80;99.60
21331;DHT22;10824;51.632;4.950;2022-09-13T07:19:20;19.90;98.10
21331;DHT22;10824;51.632;4.950;2022-09-13T07:21:49;20.00;99.90
21331;DHT22;10824;51.632;4.950;2022-09-13T07:24:17;20.00;99.80
21331;DHT22;10824;51.632;4.950;2022-09-13T07:26:44;20.10;99.80
21331;DHT22;10824;51.632;4.950;2022-09-13T07:29:14;20.20;99.50
21331;DHT22;10824;51.632;4.950;2022-09-13T07:31:43;20.30;99.40
21331;DHT22;10824;51.632;4.950;2022-09-13T07:34:13;20.40;98.90
21331;DHT22;10824;51.632;4.950;2022-09-13T07:36:41;20.40;99.90
21331;DHT22;10824;51.632;4.950;2022-09-13T07:39:08;20.50;99.90
21331;DHT22;10824;51.632;4.950;2022-09-13T07:41:41;20.60;99.20
21331;DHT22;10824;51.632;4.950;2022-09-13T07:44:12;20.60;97.50
21331;DHT22;10824;51.632;4.950;2022-09-13T07:46:41;20.70;98.90
21331;DHT22;10824;51.632;4.950;2022-09-13T07:49:15;20.80;98.90
21331;DHT22;10824;51.632;4.950;2022-09-13T07:51:43;20.80;99.10
21331;DHT22;10824;51.632;4.950;2022-09-13T07:54:12;20.90;99.40
21331;DHT22;10824;51.632;4.950;2022-09-13T07:56:40;21.00;98.60
21331;DHT22;10824;51.632;4.950;2022-09-13T07:59:12;21.10;98.80
21331;DHT22;10824;51.632;4.950;2022-09-13T08:01:49;21.10;98.80
21331;DHT22;10824;51.632;4.950;2022-09-13T08:04:21;21.10;99.10
21331;DHT22;10824;51.632;4.950;2022-09-13T08:06:49;21.20;98.90
21331;DHT22;10824;51.632;4.950;2022-09-13T08:09:17;21.20;98.90
21331;DHT22;10824;51.632;4.950;2022-09-13T08:11:48;21.40;98.50
21331;DHT22;10824;51.632;4.950;2022-09-13T08:14:20;21.40;97.80
21331;DHT22;10824;51.632;4.950;2022-09-13T08:16:47;21.50;97.60
21331;DHT22;10824;51.632;4.950;2022-09-13T08:19:16;21.60;97.60
21331;DHT22;10824;51.632;4.950;2022-09-13T08:21:43;21.60;97.10
21331;DHT22;10824;51.632;4.950;2022-09-13T08:24:20;21.70;96.90
21331;DHT22;10824;51.632;4.950;2022-09-13T08:26:48;21.70;96.70
21331;DHT22;10824;51.632;4.950;2022-09-13T08:29:15;21.70;96.90
21331;DHT22;10824;51.632;4.950;2022-09-13T08:31:43;21.60;96.60
21331;DHT22;10824;51.632;4.950;2022-09-13T08:34:12;21.70;97.10
21331;DHT22;10824;51.632;4.950;2022-09-13T08:36:41;21.70;96.70
21331;DHT22;10824;51.632;4.950;2022-09-13T08:39:09;21.70;95.70
21331;DHT22;10824;51.632;4.950;2022-09-13T08:49:44;22.00;95.80
21331;DHT22;10824;51.632;4.950;2022-09-13T08:52:33;22.10;95.80
21331;DHT22;10824;51.632;4.950;2022-09-13T08:55:29;22.20;95.30
21331;DHT22;10824;51.632;4.950;2022-09-13T09:00:50;22.40;93.10
21331;DHT22;10824;51.632;4.950;2022-09-13T09:05:56;22.50;91.50
21331;DHT22;10824;51.632;4.950;2022-09-13T09:11:19;22.50;93.20
21331;DHT22;10824;51.632;4.950;2022-09-13T09:16:52;22.50;93.50
21331;DHT22;10824;51.632;4.950;2022-09-13T09:22:33;22.70;91.90
21331;DHT22;10824;51.632;4.950;2022-09-13T09:25:02;22.80;92.30
21331;DHT22;10824;51.632;4.950;2022-09-13T09:27:30;22.70;91.50
21331;DHT22;10824;51.632;4.950;2022-09-13T09:30:00;22.70;93.00
21331;DHT22;10824;51.632;4.950;2022-09-13T09:38:31;22.60;91.20
21331;DHT22;10824;51.632;4.950;2022-09-13T09:41:04;22.50;91.70
21331;DHT22;10824;51.632;4.950;2022-09-13T09:44:00;22.70;91.70
21331;DHT22;10824;51.632;4.950;2022-09-13T09:46:32;22.80;89.80
21331;DHT22;10824;51.632;4.950;2022-09-13T09:49:12;22.80;88.60
21331;DHT22;10824;51.632;4.950;2022-09-13T09:52:05;23.00;88.20
21331;DHT22;10824;51.632;4.950;2022-09-13T09:54:35;23.00;88.00
21331;DHT22;10824;51.632;4.950;2022-09-13T09:57:05;22.90;88.20
21331;DHT22;10824;51.632;4.950;2022-09-13T09:59:35;23.00;88.50
21331;DHT22;10824;51.632;4.950;2022-09-13T10:02:15;23.30;86.40
21331;DHT22;10824;51.632;4.950;2022-09-13T10:04:53;23.40;84.90
21331;DHT22;10824;51.632;4.950;2022-09-13T10:07:31;23.60;81.80
21331;DHT22;10824;51.632;4.950;2022-09-13T10:10:06;23.70;83.40
21331;DHT22;10824;51.632;4.950;2022-09-13T10:12:49;24.00;82.70
21331;DHT22;10824;51.632;4.950;2022-09-13T10:15:20;23.80;82.50
21331;DHT22;10824;51.632;4.950;2022-09-13T10:21:06;24.20;79.40
21331;DHT22;10824;51.632;4.950;2022-09-13T10:23:45;24.20;79.80
21331;DHT22;10824;51.632;4.950;2022-09-13T10:26:24;24.00;80.90
21331;DHT22;10824;51.632;4.950;2022-09-13T10:28:59;23.90;82.10
21331;DHT22;10824;51.632;4.950;2022-09-13T10:31:38;24.00;81.30
21331;DHT22;10824;51.632;4.950;2022-09-13T10:34:34;23.80;80.90
21331;DHT22;10824;51.632;4.950;2022-09-13T10:37:10;23.80;83.00
21331;DHT22;10824;51.632;4.950;2022-09-13T10:40:06;23.90;81.90
21331;DHT22;10824;51.632;4.950;2022-09-13T10:42:35;23.80;80.70
21331;DHT22;10824;51.632;4.950;2022-09-13T10:45:07;23.80;82.50
21331;DHT22;10824;51.632;4.950;2022-09-13T10:47:45;24.00;82.10
21331;DHT22;10824;51.632;4.950;2022-09-13T10:52:50;23.80;79.50
21331;DHT22;10824;51.632;4.950;2022-09-13T10:58:10;23.40;85.10
21331;DHT22;10824;51.632;4.950;2022-09-13T11:03:54;23.40;86.70
21331;DHT22;10824;51.632;4.950;2022-09-13T11:09:27;23.60;83.80
21331;DHT22;10824;51.632;4.950;2022-09-13T11:12:34;23.50;85.00
21331;DHT22;10824;51.632;4.950;2022-09-13T11:15:30;23.70;84.90
21331;DHT22;10824;51.632;4.950;2022-09-13T11:18:25;23.80;85.00
21331;DHT22;10824;51.632;4.950;2022-09-13T11:27:16;23.80;85.30
21331;DHT22;10824;51.632;4.950;2022-09-13T11:33:09;23.60;85.40
21331;DHT22;10824;51.632;4.950;2022-09-13T11:35:50;23.60;85.00
21331;DHT22;10824;51.632;4.950;2022-09-13T11:41:27;24.70;76.80
21331;DHT22;10824;51.632;4.950;2022-09-13T11:59:00;25.40;60.30
21331;DHT22;10824;51.632;4.950;2022-09-13T12:01:48;25.40;54.30
21331;DHT22;10824;51.632;4.950;2022-09-13T12:07:26;25.70;56.50
21331;DHT22;10824;51.632;4.950;2022-09-13T12:10:01;25.80;49.20
21331;DHT22;10824;51.632;4.950;2022-09-13T12:12:33;25.80;53.40
21331;DHT22;10824;51.632;4.950;2022-09-13T12:15:14;25.30;58.20
21331;DHT22;10824;51.632;4.950;2022-09-13T12:20:47;25.10;60.50
21331;DHT22;10824;51.632;4.950;2022-09-13T12:23:41;25.30;53.60
21331;DHT22;10824;51.632;4.950;2022-09-13T12:26:23;25.50;48.60
21331;DHT22;10824;51.632;4.950;2022-09-13T12:31:45;25.80;44.60
21331;DHT22;10824;51.632;4.950;2022-09-13T12:34:22;26.30;41.00
21331;DHT22;10824;51.632;4.950;2022-09-13T12:37:49;26.00;41.00
21331;DHT22;10824;51.632;4.950;2022-09-13T12:56:47;25.60;42.90
21331;DHT22;10824;51.632;4.950;2022-09-13T13:02:30;25.50;35.00
21331;DHT22;10824;51.632;4.950;2022-09-13T13:05:05;25.50;36.20
21331;DHT22;10824;51.632;4.950;2022-09-13T13:07:41;25.50;37.00
21331;DHT22;10824;51.632;4.950;2022-09-13T13:10:34;25.20;36.90
21331;DHT22;10824;51.632;4.950;2022-09-13T13:13:22;25.10;43.90
21331;DHT22;10824;51.632;4.950;2022-09-13T13:18:29;24.90;48.90
21331;DHT22;10824;51.632;4.950;2022-09-13T13:26:02;25.10;48.40
21331;DHT22;10824;51.632;4.950;2022-09-13T13:39:38;25.80;36.90
21331;DHT22;10824;51.632;4.950;2022-09-13T13:42:30;25.90;35.60
21331;DHT22;10824;51.632;4.950;2022-09-13T13:50:15;25.50;36.50
21331;DHT22;10824;51.632;4.950;2022-09-13T13:52:52;25.70;35.60
21331;DHT22;10824;51.632;4.950;2022-09-13T13:55:46;25.80;37.50
21331;DHT22;10824;51.632;4.950;2022-09-13T13:58:29;25.50;36.20
21331;DHT22;10824;51.632;4.950;2022-09-13T14:01:00;25.40;37.00
21331;DHT22;10824;51.632;4.950;2022-09-13T14:04:05;25.30;37.70
21331;DHT22;10824;51.632;4.950;2022-09-13T14:07:06;25.30;39.70
21331;DHT22;10824;51.632;4.950;2022-09-13T14:15:19;25.00;44.00
21331;DHT22;10824;51.632;4.950;2022-09-13T14:18:09;25.10;44.50
21331;DHT22;10824;51.632;4.950;2022-09-13T14:20:59;25.10;44.20
21331;DHT22;10824;51.632;4.950;2022-09-13T14:23:28;25.00;44.10
21331;DHT22;10824;51.632;4.950;2022-09-13T14:26:15;24.90;46.00
21331;DHT22;10824;51.632;4.950;2022-09-13T14:28:42;24.90;43.60
21331;DHT22;10824;51.632;4.950;2022-09-13T14:31:16;25.10;43.70
21331;DHT22;10824;51.632;4.950;2022-09-13T14:33:47;25.00;42.10
21331;DHT22;10824;51.632;4.950;2022-09-13T14:36:18;24.90;44.60
21331;DHT22;10824;51.632;4.950;2022-09-13T14:38:51;24.90;44.50
21331;DHT22;10824;51.632;4.950;2022-09-13T14:41:29;25.00;42.60
21331;DHT22;10824;51.632;4.950;2022-09-13T14:44:21;24.80;43.30
21331;DHT22;10824;51.632;4.950;2022-09-13T14:49:51;24.90;46.10
21331;DHT22;10824;51.632;4.950;2022-09-13T14:52:25;24.80;44.30
21331;DHT22;10824;51.632;4.950;2022-09-13T14:54:57;24.70;48.10
21331;DHT22;10824;51.632;4.950;2022-09-13T14:57:37;24.70;45.50
21331;DHT22;10824;51.632;4.950;2022-09-13T15:00:19;24.50;45.70
21331;DHT22;10824;51.632;4.950;2022-09-13T15:03:02;24.60;45.20
21331;DHT22;10824;51.632;4.950;2022-09-13T15:05:32;24.40;41.90
21331;DHT22;10824;51.632;4.950;2022-09-13T15:08:22;24.40;46.00
21331;DHT22;10824;51.632;4.950;2022-09-13T15:10:51;24.40;45.60
21331;DHT22;10824;51.632;4.950;2022-09-13T15:13:18;24.50;46.70
21331;DHT22;10824;51.632;4.950;2022-09-13T15:15:45;24.40;44.60
21331;DHT22;10824;51.632;4.950;2022-09-13T15:23:19;24.40;41.70
21331;DHT22;10824;51.632;4.950;2022-09-13T15:25:53;24.40;43.40
21331;DHT22;10824;51.632;4.950;2022-09-13T15:28:23;24.20;41.70
21331;DHT22;10824;51.632;4.950;2022-09-13T15:30:52;24.20;42.40
21331;DHT22;10824;51.632;4.950;2022-09-13T15:33:27;24.20;43.20
21331;DHT22;10824;51.632;4.950;2022-09-13T15:41:39;24.20;40.90
21331;DHT22;10824;51.632;4.950;2022-09-13T15:44:08;24.00;40.00
21331;DHT22;10824;51.632;4.950;2022-09-13T15:47:10;24.00;39.40
21331;DHT22;10824;51.632;4.950;2022-09-13T15:49:38;24.00;40.80
21331;DHT22;10824;51.632;4.950;2022-09-13T15:52:06;23.80;37.90
21331;DHT22;10824;51.632;4.950;2022-09-13T15:54:38;23.80;37.70
21331;DHT22;10824;51.632;4.950;2022-09-13T15:57:18;23.80;37.60
21331;DHT22;10824;51.632;4.950;2022-09-13T15:59:47;23.80;37.30
21331;DHT22;10824;51.632;4.950;2022-09-13T16:02:22;23.70;37.30
21331;DHT22;10824;51.632;4.950;2022-09-13T16:04:51;23.70;37.20
21331;DHT22;10824;51.632;4.950;2022-09-13T16:07:19;23.70;37.40
21331;DHT22;10824;51.632;4.950;2022-09-13T16:09:47;23.60;36.60
21331;DHT22;10824;51.632;4.950;2022-09-13T16:12:14;23.30;37.90
21331;DHT22;10824;51.632;4.950;2022-09-13T16:14:41;23.30;36.10
21331;DHT22;10824;51.632;4.950;2022-09-13T16:17:19;23.30;36.10
21331;DHT22;10824;51.632;4.950;2022-09-13T16:19:46;23.20;35.90
21331;DHT22;10824;51.632;4.950;2022-09-13T16:22:14;23.20;34.90
21331;DHT22;10824;51.632;4.950;2022-09-13T16:24:41;23.10;34.20
21331;DHT22;10824;51.632;4.950;2022-09-13T16:27:12;23.10;34.60
21331;DHT22;10824;51.632;4.950;2022-09-13T16:29:40;23.00;33.30
21331;DHT22;10824;51.632;4.950;2022-09-13T16:32:07;23.00;33.70
21331;DHT22;10824;51.632;4.950;2022-09-13T16:34:34;22.90;31.20
21331;DHT22;10824;51.632;4.950;2022-09-13T16:37:02;22.80;31.00
21331;DHT22;10824;51.632;4.950;2022-09-13T16:39:29;22.80;31.50
21331;DHT22;10824;51.632;4.950;2022-09-13T16:41:56;22.70;31.70
21331;DHT22;10824;51.632;4.950;2022-09-13T16:44:23;22.70;30.70
21331;DHT22;10824;51.632;4.950;2022-09-13T16:46:50;22.70;31.80
21331;DHT22;10824;51.632;4.950;2022-09-13T16:49:17;22.70;31.30
21331;DHT22;10824;51.632;4.950;2022-09-13T16:51:44;22.70;31.90
21331;DHT22;10824;51.632;4.950;2022-09-13T16:54:11;22.60;33.10
21331;DHT22;10824;51.632;4.950;2022-09-13T16:56:42;22.60;33.10
21331;DHT22;10824;51.632;4.950;2022-09-13T16:59:09;22.50;32.70
21331;DHT22;10824;51.632;4.950;2022-09-13T17:01:36;22.40;34.00
21331;DHT22;10824;51.632;4.950;2022-09-13T17:04:03;22.40;34.60
21331;DHT22;10824;51.632;4.950;2022-09-13T17:06:31;22.30;34.60
21331;DHT22;10824;51.632;4.950;2022-09-13T17:09:00;22.30;35.50
21331;DHT22;10824;51.632;4.950;2022-09-13T17:11:33;22.30;36.00
21331;DHT22;10824;51.632;4.950;2022-09-13T17:14:01;22.30;35.60
21331;DHT22;10824;51.632;4.950;2022-09-13T17:16:40;22.30;35.70
21331;DHT22;10824;51.632;4.950;2022-09-13T17:19:13;22.20;38.20
21331;DHT22;10824;51.632;4.950;2022-09-13T17:21:42;22.10;34.30
21331;DHT22;10824;51.632;4.950;2022-09-13T17:24:10;22.00;38.80
21331;DHT22;10824;51.632;4.950;2022-09-13T17:26:40;21.90;40.90
21331;DHT22;10824;51.632;4.950;2022-09-13T17:29:09;21.80;44.90
21331;DHT22;10824;51.632;4.950;2022-09-13T17:31:39;21.70;45.70
21331;DHT22;10824;51.632;4.950;2022-09-13T17:34:06;21.50;47.10
21331;DHT22;10824;51.632;4.950;2022-09-13T17:36:33;21.50;47.80
21331;DHT22;10824;51.632;4.950;2022-09-13T17:39:01;21.50;48.90
21331;DHT22;10824;51.632;4.950;2022-09-13T17:41:28;21.50;50.60
21331;DHT22;10824;51.632;4.950;2022-09-13T17:43:56;21.40;49.30
21331;DHT22;10824;51.632;4.950;2022-09-13T17:46:25;21.50;53.00
21331;DHT22;10824;51.632;4.950;2022-09-13T17:48:56;21.40;53.20
21331;DHT22;10824;51.632;4.950;2022-09-13T17:51:30;21.20;64.40
21331;DHT22;10824;51.632;4.950;2022-09-13T17:54:00;21.10;67.50
21331;DHT22;10824;51.632;4.950;2022-09-13T17:56:39;21.00;68.20
21331;DHT22;10824;51.632;4.950;2022-09-13T17:59:11;21.00;74.60
21331;DHT22;10824;51.632;4.950;2022-09-13T18:01:42;20.90;76.40
21331;DHT22;10824;51.632;4.950;2022-09-13T18:04:10;20.90;79.60
21331;DHT22;10824;51.632;4.950;2022-09-13T18:06:38;20.80;83.90
21331;DHT22;10824;51.632;4.950;2022-09-13T18:09:09;20.70;85.10
21331;DHT22;10824;51.632;4.950;2022-09-13T18:11:37;20.70;86.00
21331;DHT22;10824;51.632;4.950;2022-09-13T18:14:05;20.60;88.30
21331;DHT22;10824;51.632;4.950;2022-09-13T18:16:32;20.60;87.80
21331;DHT22;10824;51.632;4.950;2022-09-13T18:18:59;20.60;87.90
21331;DHT22;10824;51.632;4.950;2022-09-13T18:21:27;20.50;88.80
21331;DHT22;10824;51.632;4.950;2022-09-13T18:23:56;20.40;90.20
21331;DHT22;10824;51.632;4.950;2022-09-13T18:26:25;20.40;90.70
21331;DHT22;10824;51.632;4.950;2022-09-13T18:28:54;20.40;94.00
21331;DHT22;10824;51.632;4.950;2022-09-13T18:31:23;20.30;95.30
21331;DHT22;10824;51.632;4.950;2022-09-13T18:33:58;20.40;96.00
21331;DHT22;10824;51.632;4.950;2022-09-13T18:36:27;20.30;96.60
21331;DHT22;10824;51.632;4.950;2022-09-13T18:38:55;20.20;96.00
21331;DHT22;10824;51.632;4.950;2022-09-13T18:41:28;20.30;95.90
21331;DHT22;10824;51.632;4.950;2022-09-13T18:43:56;20.10;95.40
21331;DHT22;10824;51.632;4.950;2022-09-13T18:46:29;20.10;96.90
21331;DHT22;10824;51.632;4.950;2022-09-13T18:48:58;20.10;97.40
21331;DHT22;10824;51.632;4.950;2022-09-13T18:51:38;20.10;97.70
21331;DHT22;10824;51.632;4.950;2022-09-13T18:54:07;20.10;96.60
21331;DHT22;10824;51.632;4.950;2022-09-13T18:56:44;20.00;96.70
21331;DHT22;10824;51.632;4.950;2022-09-13T18:59:14;20.00;97.20
21331;DHT22;10824;51.632;4.950;2022-09-13T19:01:43;19.90;97.30
21331;DHT22;10824;51.632;4.950;2022-09-13T19:04:15;19.90;97.90
21331;DHT22;10824;51.632;4.950;2022-09-13T19:06:51;19.90;97.50
21331;DHT22;10824;51.632;4.950;2022-09-13T19:09:22;19.80;97.10
21331;DHT22;10824;51.632;4.950;2022-09-13T19:11:55;19.90;97.00
21331;DHT22;10824;51.632;4.950;2022-09-13T19:14:25;19.80;96.70
21331;DHT22;10824;51.632;4.950;2022-09-13T19:16:56;19.80;96.80
21331;DHT22;10824;51.632;4.950;2022-09-13T19:19:24;19.80;95.90
21331;DHT22;10824;51.632;4.950;2022-09-13T19:22:01;19.70;97.00
21331;DHT22;10824;51.632;4.950;2022-09-13T19:24:28;19.70;97.50